sensor_id;sensor_type;location;lat;lon;timestamp;temperature;humidity
34542;DHT22;20784;51.332;12.410;2023-02-01T00:04:47;5.10;99.90
34542;DHT22;20784;51.332;12.410;2023-02-01T00:07:23;5.10;99.90
34542;DHT22;20784;51.332;12.410;2023-02-01T00:09:51;5.10;99.90
34542;DHT22;20784;51.332;12.410;2023-02-01T00:12:19;5.10;99.90
34542;DHT22;20784;51.332;12.410;2023-02-01T00:14:46;5.10;99.90
34542;DHT22;20784;51.332;12.410;2023-02-01T00:17:17;5.00;99.90
34542;DHT22;20784;51.332;12.410;2023-02-01T00:19:43;5.10;99.90
34542;DHT22;20784;51.332;12.410;2023-02-01T00:22:11;5.10;99.90
34542;DHT22;20784;51.332;12.410;2023-02-01T00:24:40;5.10;99.90
34542;DHT22;20784;51.332;12.410;2023-02-01T00:27:06;5.10;99.90
34542;DHT22;20784;51.332;12.410;2023-02-01T00:29:35;5.00;99.90
34542;DHT22;20784;51.332;12.410;2023-02-01T00:32:01;5.00;99.90
34542;DHT22;20784;51.332;12.410;2023-02-01T00:34:27;5.10;99.90
34542;DHT22;20784;51.332;12.410;2023-02-01T00:36:52;5.00;99.90
34542;DHT22;20784;51.332;12.410;2023-02-01T00:39:18;5.10;99.90
34542;DHT22;20784;51.332;12.410;2023-02-01T00:41:46;5.00;99.90
34542;DHT22;20784;51.332;12.410;2023-02-01T00:44:12;5.10;99.90
34542;DHT22;20784;51.332;12.410;2023-02-01T00:46:37;5.10;99.90
34542;DHT22;20784;51.332;12.410;2023-02-01T00:49:03;5.20;99.90
34542;DHT22;20784;51.332;12.410;2023-02-01T00:51:32;5.20;99.90
34542;DHT22;20784;51.332;12.410;2023-02-01T00:53:58;5.30;99.90
34542;DHT22;20784;51.332;12.410;2023-02-01T00:56:26;5.20;99.90
34542;DHT22;20784;51.332;12.410;2023-02-01T00:58:58;5.20;99.90
34542;DHT22;20784;51.332;12.410;2023-02-01T01:01:26;5.10;99.90
34542;DHT22;20784;51.332;12.410;2023-02-01T01:03:56;5.30;99.90
34542;DHT22;20784;51.332;12.410;2023-02-01T01:06:25;5.30;99.90
34542;DHT22;20784;51.332;12.410;2023-02-01T01:08:59;5.30;99.90
34542;DHT22;20784;51.332;12.410;2023-02-01T01:11:37;5.30;99.90
34542;DHT22;20784;51.332;12.410;2023-02-01T01:14:30;5.30;99.90
34542;DHT22;20784;51.332;12.410;2023-02-01T01:17:34;5.40;99.90
34542;DHT22;20784;51.332;12.410;2023-02-01T01:23:19;5.10;99.90
34542;DHT22;20784;51.332;12.410;2023-02-01T01:25:45;5.10;99.90
34542;DHT22;20784;51.332;12.410;2023-02-01T01:28:55;5.00;99.90
34542;DHT22;20784;51.332;12.410;2023-02-01T01:31:58;5.00;99.90
34542;DHT22;20784;51.332;12.410;2023-02-01T01:38:45;5.10;99.90
34542;DHT22;20784;51.332;12.410;2023-02-01T01:47:20;5.10;99.90
34542;DHT22;20784;51.332;12.410;2023-02-01T01:50:13;5.00;99.90
34542;DHT22;20784;51.332;12.410;2023-02-01T01:52:58;5.00;99.90
34542;DHT22;20784;51.332;12.410;2023-02-01T01:55:32;4.90;99.90
34542;DHT22;20784;51.332;12.410;2023-02-01T01:58:12;5.00;99.90
34542;DHT22;20784;51.332;12.410;2023-02-01T02:01:10;5.00;99.90
34542;DHT22;20784;51.332;12.410;2023-02-01T02:03:44;5.00;99.90
34542;DHT22;20784;51.332;12.410;2023-02-01T02:06:40;4.90;99.90
34542;DHT22;20784;51.332;12.410;2023-02-01T02:09:31;4.90;99.90
34542;DHT22;20784;51.332;12.410;2023-02-01T02:12:21;4.80;99.90
34542;DHT22;20784;51.332;12.410;2023-02-01T02:21:17;4.90;99.90
34542;DHT22;20784;51.332;12.410;2023-02-01T02:24:07;5.10;99.90
34542;DHT22;20784;51.332;12.410;2023-02-01T02:33:53;5.00;99.90
34542;DHT22;20784;51.332;12.410;2023-02-01T02:40:04;5.00;99.90
34542;DHT22;20784;51.332;12.410;2023-02-01T02:46:45;5.20;99.90
34542;DHT22;20784;51.332;12.410;2023-02-01T02:49:52;5.20;99.90
34542;DHT22;20784;51.332;12.410;2023-02-01T02:52:51;5.20;99.90
34542;DHT22;20784;51.332;12.410;2023-02-01T02:55:38;5.20;99.90
34542;DHT22;20784;51.332;12.410;2023-02-01T02:58:08;5.30;99.90
34542;DHT22;20784;51.332;12.410;2023-02-01T03:00:57;5.30;99.90
34542;DHT22;20784;51.332;12.410;2023-02-01T03:03:42;5.20;99.90
34542;DHT22;20784;51.332;12.410;2023-02-01T03:06:34;5.20;99.90
34542;DHT22;20784;51.332;12.410;2023-02-01T03:09:02;5.20;99.90
34542;DHT22;20784;51.332;12.410;2023-02-01T03:11:32;5.20;99.90
34542;DHT22;20784;51.332;12.410;2023-02-01T03:14:32;5.20;99.90
34542;DHT22;20784;51.332;12.410;2023-02-01T03:17:30;5.20;99.90
34542;DHT22;20784;51.332;12.410;2023-02-01T03:20:06;5.20;99.90
34542;DHT22;20784;51.332;12.410;2023-02-01T03:22:38;5.20;99.90
34542;DHT22;20784;51.332;12.410;2023-02-01T03:25:15;5.20;99.90
34542;DHT22;20784;51.332;12.410;2023-02-01T03:27:57;5.30;99.90
34542;DHT22;20784;51.332;12.410;2023-02-01T03:30:35;5.30;99.90
34542;DHT22;20784;51.332;12.410;2023-02-01T03:33:49;5.30;99.90
34542;DHT22;20784;51.332;12.410;2023-02-01T03:42:23;5.30;99.90
34542;DHT22;20784;51.332;12.410;2023-02-01T03:50:58;5.40;99.90
34542;DHT22;20784;51.332;12.410;2023-02-01T03:53:36;5.30;99.90
34542;DHT22;20784;51.332;12.410;2023-02-01T03:56:16;5.40;99.90
34542;DHT22;20784;51.332;12.410;2023-02-01T03:59:10;5.40;99.90
34542;DHT22;20784;51.332;12.410;2023-02-01T04:02:20;5.40;99.90
34542;DHT22;20784;51.332;12.410;2023-02-01T04:12:02;5.10;99.90
34542;DHT22;20784;51.332;12.410;2023-02-01T04:21:17;5.30;99.90
34542;DHT22;20784;51.332;12.410;2023-02-01T04:23:55;5.40;99.90
34542;DHT22;20784;51.332;12.410;2023-02-01T04:26:33;5.40;99.90
34542;DHT22;20784;51.332;12.410;2023-02-01T04:29:16;5.30;99.90
34542;DHT22;20784;51.332;12.410;2023-02-01T04:32:03;5.30;99.90
34542;DHT22;20784;51.332;12.410;2023-02-01T04:34:31;5.30;99.90
34542;DHT22;20784;51.332;12.410;2023-02-01T04:37:14;5.30;99.90
34542;DHT22;20784;51.332;12.410;2023-02-01T04:39:52;5.20;99.90
34542;DHT22;20784;51.332;12.410;2023-02-01T04:42:41;5.30;99.90
34542;DHT22;20784;51.332;12.410;2023-02-01T04:45:21;5.30;99.90
34542;DHT22;20784;51.332;12.410;2023-02-01T04:47:47;5.30;99.90
34542;DHT22;20784;51.332;12.410;2023-02-01T04:50:21;5.30;99.90
34542;DHT22;20784;51.332;12.410;2023-02-01T04:53:15;5.30;99.70
34542;DHT22;20784;51.332;12.410;2023-02-01T04:56:13;5.30;98.30
34542;DHT22;20784;51.332;12.410;2023-02-01T04:58:55;5.30;97.50
34542;DHT22;20784;51.332;12.410;2023-02-01T05:02:08;5.40;96.00
34542;DHT22;20784;51.332;12.410;2023-02-01T05:04:46;5.30;97.60
34542;DHT22;20784;51.332;12.410;2023-02-01T05:07:14;5.40;97.90
34542;DHT22;20784;51.332;12.410;2023-02-01T05:09:40;5.30;98.10
34542;DHT22;20784;51.332;12.410;2023-02-01T05:12:17;5.40;99.10
34542;DHT22;20784;51.332;12.410;2023-02-01T05:15:13;5.40;97.70
34542;DHT22;20784;51.332;12.410;2023-02-01T05:17:42;5.30;98.30
34542;DHT22;20784;51.332;12.410;2023-02-01T05:20:11;5.40;98.50
34542;DHT22;20784;51.332;12.410;2023-02-01T05:22:49;5.50;99.30
34542;DHT22;20784;51.332;12.410;2023-02-01T05:25:41;5.40;99.90
34542;DHT22;20784;51.332;12.410;2023-02-01T05:31:29;5.30;99.90
34542;DHT22;20784;51.332;12.410;2023-02-01T05:34:26;5.40;99.90
34542;DHT22;20784;51.332;12.410;2023-02-01T05:36:58;5.20;99.90
34542;DHT22;20784;51.332;12.410;2023-02-01T05:39:29;5.30;99.90
34542;DHT22;20784;51.332;12.410;2023-02-01T05:42:03;5.30;99.90
34542;DHT22;20784;51.332;12.410;2023-02-01T05:44:34;5.30;99.90
34542;DHT22;20784;51.332;12.410;2023-02-01T05:47:10;5.30;99.90
34542;DHT22;20784;51.332;12.410;2023-02-01T05:49:46;5.30;99.90
34542;DHT22;20784;51.332;12.410;2023-02-01T05:52:12;5.30;99.90
34542;DHT22;20784;51.332;12.410;2023-02-01T05:57:57;5.20;99.90
34542;DHT22;20784;51.332;12.410;2023-02-01T06:00:23;5.30;99.90
34542;DHT22;20784;51.332;12.410;2023-02-01T06:02:49;5.20;99.90
34542;DHT22;20784;51.332;12.410;2023-02-01T06:05:18;5.20;99.90
34542;DHT22;20784;51.332;12.410;2023-02-01T06:07:43;5.30;99.90
34542;DHT22;20784;51.332;12.410;2023-02-01T06:10:10;5.20;99.90
34542;DHT22;20784;51.332;12.410;2023-02-01T06:12:36;5.30;99.90
34542;DHT22;20784;51.332;12.410;2023-02-01T06:15:02;5.20;99.90
34542;DHT22;20784;51.332;12.410;2023-02-01T06:17:27;5.20;99.90
34542;DHT22;20784;51.332;12.410;2023-02-01T06:19:53;5.20;99.90
34542;DHT22;20784;51.332;12.410;2023-02-01T06:22:36;5.20;99.90
34542;DHT22;20784;51.332;12.410;2023-02-01T06:25:09;5.20;99.90
34542;DHT22;20784;51.332;12.410;2023-02-01T06:27:35;5.20;99.90
34542;DHT22;20784;51.332;12.410;2023-02-01T06:33:17;5.20;99.90
34542;DHT22;20784;51.332;12.410;2023-02-01T06:36:02;5.20;99.90
34542;DHT22;20784;51.332;12.410;2023-02-01T06:38:29;5.20;99.90
34542;DHT22;20784;51.332;12.410;2023-02-01T06:41:04;5.20;99.90
34542;DHT22;20784;51.332;12.410;2023-02-01T06:43:31;5.40;99.90
34542;DHT22;20784;51.332;12.410;2023-02-01T06:46:02;5.70;99.90
34542;DHT22;20784;51.332;12.410;2023-02-01T06:48:28;5.90;99.90
34542;DHT22;20784;51.332;12.410;2023-02-01T06:51:03;6.10;99.90
34542;DHT22;20784;51.332;12.410;2023-02-01T06:53:45;6.10;99.90
34542;DHT22;20784;51.332;12.410;2023-02-01T06:56:11;6.10;99.90
34542;DHT22;20784;51.332;12.410;2023-02-01T06:58:39;6.00;99.70
34542;DHT22;20784;51.332;12.410;2023-02-01T07:01:05;5.80;99.90
34542;DHT22;20784;51.332;12.410;2023-02-01T07:03:34;5.80;99.90
34542;DHT22;20784;51.332;12.410;2023-02-01T07:06:00;5.90;99.90
34542;DHT22;20784;51.332;12.410;2023-02-01T07:08:37;5.70;99.90
34542;DHT22;20784;51.332;12.410;2023-02-01T07:11:21;5.60;99.90
34542;DHT22;20784;51.332;12.410;2023-02-01T07:14:16;5.50;99.90
34542;DHT22;20784;51.332;12.410;2023-02-01T07:16:45;5.60;99.90
34542;DHT22;20784;51.332;12.410;2023-02-01T07:19:42;5.40;99.90
34542;DHT22;20784;51.332;12.410;2023-02-01T07:25:10;5.40;99.90
34542;DHT22;20784;51.332;12.410;2023-02-01T07:27:44;5.50;99.90
34542;DHT22;20784;51.332;12.410;2023-02-01T07:30:17;5.40;99.90
34542;DHT22;20784;51.332;12.410;2023-02-01T07:32:53;5.60;99.90
34542;DHT22;20784;51.332;12.410;2023-02-01T07:35:21;5.60;99.90
34542;DHT22;20784;51.332;12.410;2023-02-01T07:40:50;5.60;99.90
34542;DHT22;20784;51.332;12.410;2023-02-01T07:43:16;5.50;99.90
34542;DHT22;20784;51.332;12.410;2023-02-01T07:45:42;5.70;99.70
34542;DHT22;20784;51.332;12.410;2023-02-01T07:48:17;5.70;97.60
34542;DHT22;20784;51.332;12.410;2023-02-01T07:51:31;5.60;97.30
34542;DHT22;20784;51.332;12.410;2023-02-01T07:57:17;5.80;71.60
34542;DHT22;20784;51.332;12.410;2023-02-01T08:00:24;5.80;59.70
34542;DHT22;20784;51.332;12.410;2023-02-01T08:03:43;5.90;53.70
34542;DHT22;20784;51.332;12.410;2023-02-01T08:06:23;6.00;53.90
34542;DHT22;20784;51.332;12.410;2023-02-01T08:09:14;5.90;57.20
34542;DHT22;20784;51.332;12.410;2023-02-01T08:15:06;5.90;64.90
34542;DHT22;20784;51.332;12.410;2023-02-01T08:24:51;5.90;79.40
34542;DHT22;20784;51.332;12.410;2023-02-01T08:27:50;5.90;83.00
34542;DHT22;20784;51.332;12.410;2023-02-01T08:40:57;5.80;99.90
34542;DHT22;20784;51.332;12.410;2023-02-01T08:43:25;5.80;99.90
34542;DHT22;20784;51.332;12.410;2023-02-01T08:45:54;5.90;99.90
34542;DHT22;20784;51.332;12.410;2023-02-01T10:16:14;6.40;99.90
34542;DHT22;20784;51.332;12.410;2023-02-01T10:21:50;6.50;99.90
34542;DHT22;20784;51.332;12.410;2023-02-01T10:24:51;6.60;99.90
34542;DHT22;20784;51.332;12.410;2023-02-01T10:27:34;6.60;99.90
34542;DHT22;20784;51.332;12.410;2023-02-01T10:30:29;6.60;99.90
34542;DHT22;20784;51.332;12.410;2023-02-01T10:33:00;6.60;99.90
34542;DHT22;20784;51.332;12.410;2023-02-01T10:35:36;6.60;99.90
34542;DHT22;20784;51.332;12.410;2023-02-01T10:38:12;6.60;99.90
34542;DHT22;20784;51.332;12.410;2023-02-01T10:41:10;6.70;99.90
34542;DHT22;20784;51.332;12.410;2023-02-01T10:50:58;7.30;99.90
34542;DHT22;20784;51.332;12.410;2023-02-01T10:56:56;7.40;99.90
34542;DHT22;20784;51.332;12.410;2023-02-01T11:03:36;7.30;99.90
34542;DHT22;20784;51.332;12.410;2023-02-01T11:10:33;10.50;99.90
34542;DHT22;20784;51.332;12.410;2023-02-01T11:13:17;15.10;99.90
34542;DHT22;20784;51.332;12.410;2023-02-01T11:15:57;16.80;99.90
34542;DHT22;20784;51.332;12.410;2023-02-01T11:18:43;18.30;99.90
34542;DHT22;20784;51.332;12.410;2023-02-01T11:21:10;16.80;99.90
34542;DHT22;20784;51.332;12.410;2023-02-01T11:23:43;14.60;99.90
34542;DHT22;20784;51.332;12.410;2023-02-01T11:26:29;13.00;99.90
34542;DHT22;20784;51.332;12.410;2023-02-01T11:29:04;11.30;99.90
34542;DHT22;20784;51.332;12.410;2023-02-01T11:31:34;10.20;99.90
34542;DHT22;20784;51.332;12.410;2023-02-01T11:34:21;9.80;99.90
34542;DHT22;20784;51.332;12.410;2023-02-01T11:37:03;9.20;99.90
34542;DHT22;20784;51.332;12.410;2023-02-01T11:46:17;9.40;99.90
34542;DHT22;20784;51.332;12.410;2023-02-01T12:01:41;9.30;99.90
34542;DHT22;20784;51.332;12.410;2023-02-01T12:04:43;9.20;99.90
34542;DHT22;20784;51.332;12.410;2023-02-01T12:07:48;9.10;99.90
34542;DHT22;20784;51.332;12.410;2023-02-01T12:20:15;8.40;99.90
34542;DHT22;20784;51.332;12.410;2023-02-01T12:23:01;8.40;99.90
34542;DHT22;20784;51.332;12.410;2023-02-01T12:25:42;8.30;99.90
34542;DHT22;20784;51.332;12.410;2023-02-01T12:34:34;8.20;99.90
34542;DHT22;20784;51.332;12.410;2023-02-01T12:37:27;8.20;99.90
34542;DHT22;20784;51.332;12.410;2023-02-01T12:40:07;8.20;99.90
34542;DHT22;20784;51.332;12.410;2023-02-01T12:47:56;8.20;99.90
34542;DHT22;20784;51.332;12.410;2023-02-01T12:50:59;8.20;99.90
34542;DHT22;20784;51.332;12.410;2023-02-01T12:56:42;8.20;99.90
34542;DHT22;20784;51.332;12.410;2023-02-01T12:59:19;8.20;99.90
34542;DHT22;20784;51.332;12.410;2023-02-01T13:02:08;8.20;99.90
34542;DHT22;20784;51.332;12.410;2023-02-01T13:05:04;8.50;99.90
34542;DHT22;20784;51.332;12.410;2023-02-01T13:11:43;8.20;99.90
34542;DHT22;20784;51.332;12.410;2023-02-01T13:38:03;7.90;99.90
34542;DHT22;20784;51.332;12.410;2023-02-01T13:40:56;7.80;99.90
34542;DHT22;20784;51.332;12.410;2023-02-01T13:43:34;8.00;99.90
34542;DHT22;20784;51.332;12.410;2023-02-01T13:46:16;7.70;99.90
34542;DHT22;20784;51.332;12.410;2023-02-01T13:48:57;7.80;99.90
34542;DHT22;20784;51.332;12.410;2023-02-01T13:51:59;7.80;99.90
34542;DHT22;20784;51.332;12.410;2023-02-01T13:55:43;7.80;99.90
34542;DHT22;20784;51.332;12.410;2023-02-01T13:58:03;7.80;99.90
34542;DHT22;20784;51.332;12.410;2023-02-01T14:04:45;7.80;99.90
34542;DHT22;20784;51.332;12.410;2023-02-01T14:13:37;7.60;99.90
34542;DHT22;20784;51.332;12.410;2023-02-01T14:16:16;7.50;99.90
34542;DHT22;20784;51.332;12.410;2023-02-01T14:23:45;7.40;99.90
34542;DHT22;20784;51.332;12.410;2023-02-01T14:26:15;7.40;99.90
34542;DHT22;20784;51.332;12.410;2023-02-01T14:29:14;7.40;99.90
34542;DHT22;20784;51.332;12.410;2023-02-01T14:35:29;7.50;99.90
34542;DHT22;20784;51.332;12.410;2023-02-01T15:04:40;7.30;99.90
34542;DHT22;20784;51.332;12.410;2023-02-01T15:07:17;7.30;99.90
34542;DHT22;20784;51.332;12.410;2023-02-01T15:09:51;7.30;99.90
34542;DHT22;20784;51.332;12.410;2023-02-01T15:12:49;7.20;99.90
34542;DHT22;20784;51.332;12.410;2023-02-01T15:15:33;7.20;99.90
34542;DHT22;20784;51.332;12.410;2023-02-01T15:18:01;7.10;99.90
34542;DHT22;20784;51.332;12.410;2023-02-01T15:20:32;7.00;99.90
34542;DHT22;20784;51.332;12.410;2023-02-01T15:23:14;7.00;99.90
34542;DHT22;20784;51.332;12.410;2023-02-01T15:25:49;6.90;99.90
34542;DHT22;20784;51.332;12.410;2023-02-01T15:28:26;6.90;99.90
34542;DHT22;20784;51.332;12.410;2023-02-01T15:31:41;6.90;99.90
34542;DHT22;20784;51.332;12.410;2023-02-01T15:44:42;6.70;99.90
34542;DHT22;20784;51.332;12.410;2023-02-01T15:47:26;6.60;99.90
34542;DHT22;20784;51.332;12.410;2023-02-01T15:50:29;6.60;99.90
34542;DHT22;20784;51.332;12.410;2023-02-01T15:53:32;6.70;99.90
34542;DHT22;20784;51.332;12.410;2023-02-01T15:59:39;6.70;99.90
34542;DHT22;20784;51.332;12.410;2023-02-01T16:05:32;6.70;99.90
34542;DHT22;20784;51.332;12.410;2023-02-01T16:08:27;6.60;99.90
34542;DHT22;20784;51.332;12.410;2023-02-01T16:11:40;6.20;99.90
34542;DHT22;20784;51.332;12.410;2023-02-01T16:21:10;4.50;99.90
34542;DHT22;20784;51.332;12.410;2023-02-01T16:27:00;4.30;99.90
34542;DHT22;20784;51.332;12.410;2023-02-01T16:29:37;4.20;99.90
34542;DHT22;20784;51.332;12.410;2023-02-01T16:32:05;4.20;99.90
34542;DHT22;20784;51.332;12.410;2023-02-01T16:34:31;4.20;99.90
34542;DHT22;20784;51.332;12.410;2023-02-01T16:37:15;4.10;99.90
34542;DHT22;20784;51.332;12.410;2023-02-01T16:39:51;4.10;99.90
34542;DHT22;20784;51.332;12.410;2023-02-01T16:42:25;4.10;99.90
34542;DHT22;20784;51.332;12.410;2023-02-01T16:53:47;4.00;99.90
34542;DHT22;20784;51.332;12.410;2023-02-01T16:56:20;4.00;99.90
34542;DHT22;20784;51.332;12.410;2023-02-01T16:58:54;4.10;99.90
34542;DHT22;20784;51.332;12.410;2023-02-01T17:04:14;4.10;99.90
34542;DHT22;20784;51.332;12.410;2023-02-01T17:06:44;4.10;99.90
34542;DHT22;20784;51.332;12.410;2023-02-01T17:09:17;4.10;99.90
34542;DHT22;20784;51.332;12.410;2023-02-01T17:11:43;4.10;99.90
34542;DHT22;20784;51.332;12.410;2023-02-01T17:14:19;4.10;99.90
34542;DHT22;20784;51.332;12.410;2023-02-01T17:16:49;4.00;99.90
34542;DHT22;20784;51.332;12.410;2023-02-01T17:19:22;4.00;99.90
34542;DHT22;20784;51.332;12.410;2023-02-01T17:22:10;4.00;99.90
34542;DHT22;20784;51.332;12.410;2023-02-01T17:24:59;4.10;99.90
34542;DHT22;20784;51.332;12.410;2023-02-01T17:27:31;4.00;99.90
34542;DHT22;20784;51.332;12.410;2023-02-01T17:29:59;4.00;99.90
34542;DHT22;20784;51.332;12.410;2023-02-01T17:32:41;4.00;99.90
34542;DHT22;20784;51.332;12.410;2023-02-01T17:35:27;4.00;99.90
34542;DHT22;20784;51.332;12.410;2023-02-01T17:37:56;3.90;99.90
34542;DHT22;20784;51.332;12.410;2023-02-01T17:40:22;3.80;99.90
34542;DHT22;20784;51.332;12.410;2023-02-01T17:43:11;3.90;99.90
34542;DHT22;20784;51.332;12.410;2023-02-01T17:45:49;3.80;99.90
34542;DHT22;20784;51.332;12.410;2023-02-01T17:48:20;3.90;99.90
34542;DHT22;20784;51.332;12.410;2023-02-01T17:50:48;3.80;99.90
34542;DHT22;20784;51.332;12.410;2023-02-01T17:53:17;3.80;99.90
34542;DHT22;20784;51.332;12.410;2023-02-01T17:56:02;3.80;99.90
34542;DHT22;20784;51.332;12.410;2023-02-01T17:58:41;3.90;99.90
34542;DHT22;20784;51.332;12.410;2023-02-01T18:01:43;3.90;99.90
34542;DHT22;20784;51.332;12.410;2023-02-01T18:04:27;3.90;99.90
34542;DHT22;20784;51.332;12.410;2023-02-01T18:06:56;3.90;99.90
34542;DHT22;20784;51.332;12.410;2023-02-01T18:09:22;3.80;99.90
34542;DHT22;20784;51.332;12.410;2023-02-01T18:11:48;3.80;99.90
34542;DHT22;20784;51.332;12.410;2023-02-01T18:14:30;3.80;99.90
34542;DHT22;20784;51.332;12.410;2023-02-01T18:16:56;3.80;99.90
34542;DHT22;20784;51.332;12.410;2023-02-01T18:19:22;3.70;99.90
34542;DHT22;20784;51.332;12.410;2023-02-01T18:21:51;3.70;99.90
34542;DHT22;20784;51.332;12.410;2023-02-01T18:24:26;3.80;99.90
34542;DHT22;20784;51.332;12.410;2023-02-01T18:30:45;3.70;99.90
34542;DHT22;20784;51.332;12.410;2023-02-01T18:32:54;3.60;99.90
34542;DHT22;20784;51.332;12.410;2023-02-01T18:35:32;3.60;99.90
34542;DHT22;20784;51.332;12.410;2023-02-01T18:38:05;3.60;99.90
34542;DHT22;20784;51.332;12.410;2023-02-01T18:43:48;3.70;99.90
34542;DHT22;20784;51.332;12.410;2023-02-01T18:49:31;3.70;99.90
34542;DHT22;20784;51.332;12.410;2023-02-01T18:51:57;3.60;99.90
34542;DHT22;20784;51.332;12.410;2023-02-01T18:54:48;3.70;99.90
34542;DHT22;20784;51.332;12.410;2023-02-01T19:00:32;3.70;99.90
34542;DHT22;20784;51.332;12.410;2023-02-01T19:03:42;3.70;99.90
34542;DHT22;20784;51.332;12.410;2023-02-01T19:06:41;3.70;99.90
34542;DHT22;20784;51.332;12.410;2023-02-01T19:09:16;3.80;99.90
34542;DHT22;20784;51.332;12.410;2023-02-01T19:11:47;3.70;99.90
34542;DHT22;20784;51.332;12.410;2023-02-01T19:14:48;3.80;99.90
34542;DHT22;20784;51.332;12.410;2023-02-01T19:17:35;3.80;99.90
34542;DHT22;20784;51.332;12.410;2023-02-01T19:26:45;3.90;99.90
34542;DHT22;20784;51.332;12.410;2023-02-01T19:29:46;4.00;99.90
34542;DHT22;20784;51.332;12.410;2023-02-01T19:32:22;4.10;99.90
34542;DHT22;20784;51.332;12.410;2023-02-01T19:35:11;4.10;99.90
34542;DHT22;20784;51.332;12.410;2023-02-01T19:37:53;4.10;99.90
34542;DHT22;20784;51.332;12.410;2023-02-01T19:40:25;4.10;99.90
34542;DHT22;20784;51.332;12.410;2023-02-01T19:42:57;4.20;99.90
34542;DHT22;20784;51.332;12.410;2023-02-01T19:46:00;4.30;99.90
34542;DHT22;20784;51.332;12.410;2023-02-01T19:48:40;4.30;99.90
34542;DHT22;20784;51.332;12.410;2023-02-01T19:51:08;4.40;99.90
34542;DHT22;20784;51.332;12.410;2023-02-01T19:53:52;4.40;99.90
34542;DHT22;20784;51.332;12.410;2023-02-01T19:56:23;4.40;99.90
34542;DHT22;20784;51.332;12.410;2023-02-01T19:59:03;4.40;99.90
34542;DHT22;20784;51.332;12.410;2023-02-01T20:01:44;4.40;99.90
34542;DHT22;20784;51.332;12.410;2023-02-01T20:04:17;4.50;99.90
34542;DHT22;20784;51.332;12.410;2023-02-01T20:06:46;4.50;99.90
34542;DHT22;20784;51.332;12.410;2023-02-01T20:09:24;4.50;99.90
34542;DHT22;20784;51.332;12.410;2023-02-01T20:12:16;4.50;99.90
34542;DHT22;20784;51.332;12.410;2023-02-01T20:14:49;4.50;99.90
34542;DHT22;20784;51.332;12.410;2023-02-01T20:17:29;4.50;99.90
34542;DHT22;20784;51.332;12.410;2023-02-01T20:19:58;4.60;99.90
34542;DHT22;20784;51.332;12.410;2023-02-01T20:22:29;4.60;99.90
34542;DHT22;20784;51.332;12.410;2023-02-01T20:25:02;4.60;99.90
34542;DHT22;20784;51.332;12.410;2023-02-01T20:27:40;4.60;99.90
34542;DHT22;20784;51.332;12.410;2023-02-01T20:30:21;4.60;99.90
34542;DHT22;20784;51.332;12.410;2023-02-01T20:32:52;4.60;99.90
34542;DHT22;20784;51.332;12.410;2023-02-01T20:35:21;4.50;99.90
34542;DHT22;20784;51.332;12.410;2023-02-01T20:37:49;4.60;99.90
34542;DHT22;20784;51.332;12.410;2023-02-01T20:40:28;4.50;99.90
34542;DHT22;20784;51.332;12.410;2023-02-01T20:43:12;4.40;99.90
34542;DHT22;20784;51.332;12.410;2023-02-01T20:45:50;4.40;99.90
34542;DHT22;20784;51.332;12.410;2023-02-01T20:48:26;4.40;99.90
34542;DHT22;20784;51.332;12.410;2023-02-01T20:51:18;4.40;99.90
34542;DHT22;20784;51.332;12.410;2023-02-01T20:54:00;4.40;99.90
34542;DHT22;20784;51.332;12.410;2023-02-01T21:07:36;4.60;99.90
34542;DHT22;20784;51.332;12.410;2023-02-01T21:10:13;4.60;99.90
34542;DHT22;20784;51.332;12.410;2023-02-01T21:12:58;4.70;99.90
34542;DHT22;20784;51.332;12.410;2023-02-01T21:15:27;4.70;99.90
34542;DHT22;20784;51.332;12.410;2023-02-01T21:21:35;4.60;99.90
34542;DHT22;20784;51.332;12.410;2023-02-01T21:24:59;4.70;99.90
34542;DHT22;20784;51.332;12.410;2023-02-01T21:27:46;4.50;99.90
34542;DHT22;20784;51.332;12.410;2023-02-01T21:31:13;4.80;99.90
34542;DHT22;20784;51.332;12.410;2023-02-01T21:33:49;4.70;99.90
34542;DHT22;20784;51.332;12.410;2023-02-01T21:36:25;4.60;99.90
34542;DHT22;20784;51.332;12.410;2023-02-01T21:38:58;4.50;99.90
34542;DHT22;20784;51.332;12.410;2023-02-01T21:41:44;4.50;99.90
34542;DHT22;20784;51.332;12.410;2023-02-01T21:44:33;4.50;99.90
34542;DHT22;20784;51.332;12.410;2023-02-01T21:46:59;4.40;99.90
34542;DHT22;20784;51.332;12.410;2023-02-01T21:52:24;4.30;99.90
34542;DHT22;20784;51.332;12.410;2023-02-01T21:55:00;4.30;99.90
34542;DHT22;20784;51.332;12.410;2023-02-01T21:57:48;4.20;99.90
34542;DHT22;20784;51.332;12.410;2023-02-01T22:00:17;4.20;99.90
34542;DHT22;20784;51.332;12.410;2023-02-01T22:02:47;4.20;99.90
34542;DHT22;20784;51.332;12.410;2023-02-01T22:05:21;4.20;99.90
34542;DHT22;20784;51.332;12.410;2023-02-01T22:07:50;4.20;99.90
34542;DHT22;20784;51.332;12.410;2023-02-01T22:10:19;4.20;99.90
34542;DHT22;20784;51.332;12.410;2023-02-01T22:12:47;4.20;99.90
34542;DHT22;20784;51.332;12.410;2023-02-01T22:15:16;4.20;99.90
34542;DHT22;20784;51.332;12.410;2023-02-01T22:17:53;4.20;99.90
34542;DHT22;20784;51.332;12.410;2023-02-01T22:20:25;4.20;99.90
34542;DHT22;20784;51.332;12.410;2023-02-01T22:26:10;4.20;99.90
34542;DHT22;20784;51.332;12.410;2023-02-01T22:29:09;4.10;99.90
34542;DHT22;20784;51.332;12.410;2023-02-01T22:32:01;4.00;99.90
34542;DHT22;20784;51.332;12.410;2023-02-01T22:34:48;4.00;99.90
34542;DHT22;20784;51.332;12.410;2023-02-01T22:40:42;4.00;99.90
34542;DHT22;20784;51.332;12.410;2023-02-01T22:47:00;3.70;99.90
34542;DHT22;20784;51.332;12.410;2023-02-01T22:49:49;3.70;99.90
34542;DHT22;20784;51.332;12.410;2023-02-01T22:52:41;3.60;99.90
34542;DHT22;20784;51.332;12.410;2023-02-01T22:55:17;3.70;99.90
34542;DHT22;20784;51.332;12.410;2023-02-01T22:57:46;3.70;99.90
34542;DHT22;20784;51.332;12.410;2023-02-01T23:00:37;3.70;99.90
34542;DHT22;20784;51.332;12.410;2023-02-01T23:03:06;3.70;99.90
34542;DHT22;20784;51.332;12.410;2023-02-01T23:05:34;3.80;99.90
34542;DHT22;20784;51.332;12.410;2023-02-01T23:08:33;3.80;99.90
34542;DHT22;20784;51.332;12.410;2023-02-01T23:11:17;3.90;99.90
34542;DHT22;20784;51.332;12.410;2023-02-01T23:13:54;3.90;99.90
34542;DHT22;20784;51.332;12.410;2023-02-01T23:16:31;4.00;99.90
34542;DHT22;20784;51.332;12.410;2023-02-01T23:22:03;4.10;99.90
34542;DHT22;20784;51.332;12.410;2023-02-01T23:24:52;4.20;99.90
34542;DHT22;20784;51.332;12.410;2023-02-01T23:27:18;4.30;99.90
34542;DHT22;20784;51.332;12.410;2023-02-01T23:30:12;4.30;99.90
34542;DHT22;20784;51.332;12.410;2023-02-01T23:32:55;4.30;99.90
34542;DHT22;20784;51.332;12.410;2023-02-01T23:38:54;4.40;99.90
34542;DHT22;20784;51.332;12.410;2023-02-01T23:41:23;4.30;99.90
34542;DHT22;20784;51.332;12.410;2023-02-01T23:49:50;4.40;99.90
34542;DHT22;20784;51.332;12.410;2023-02-01T23:52:27;4.40;99.90